sensor_id;sensor_type;location;lat;lon;timestamp;P1;durP1;ratioP1;P2;durP2;ratioP2
2173;SDS011;1093;51.424;11.764;2022-09-06T00:01:06;13.20;;;11.70;;
2173;SDS011;1093;51.424;11.764;2022-09-06T00:03:33;15.60;;;13.90;;
2173;SDS011;1093;51.424;11.764;2022-09-06T00:06:04;13.50;;;12.10;;
2173;SDS011;1093;51.424;11.764;2022-09-06T00:08:32;12.33;;;11.10;;
2173;SDS011;1093;51.424;11.764;2022-09-06T00:10:58;16.20;;;14.17;;
2173;SDS011;1093;51.424;11.764;2022-09-06T00:13:27;13.27;;;11.87;;
2173;SDS011;1093;51.424;11.764;2022-09-06T00:15:53;17.53;;;13.73;;
2173;SDS011;1093;51.424;11.764;2022-09-06T00:18:20;16.03;;;13.43;;
2173;SDS011;1093;51.424;11.764;2022-09-06T00:20:47;15.13;;;12.77;;
2173;SDS011;1093;51.424;11.764;2022-09-06T00:23:14;13.83;;;12.03;;
2173;SDS011;1093;51.424;11.764;2022-09-06T00:25:40;14.63;;;12.00;;
2173;SDS011;1093;51.424;11.764;2022-09-06T00:28:07;14.30;;;12.90;;
2173;SDS011;1093;51.424;11.764;2022-09-06T00:30:35;14.93;;;13.40;;
2173;SDS011;1093;51.424;11.764;2022-09-06T00:33:02;14.20;;;11.87;;
2173;SDS011;1093;51.424;11.764;2022-09-06T00:35:29;13.33;;;12.03;;
2173;SDS011;1093;51.424;11.764;2022-09-06T00:37:56;14.47;;;12.30;;
2173;SDS011;1093;51.424;11.764;2022-09-06T00:40:24;14.93;;;13.53;;
2173;SDS011;1093;51.424;11.764;2022-09-06T00:42:51;13.83;;;12.43;;
2173;SDS011;1093;51.424;11.764;2022-09-06T00:45:18;16.10;;;13.00;;
2173;SDS011;1093;51.424;11.764;2022-09-06T00:47:46;15.50;;;13.77;;
2173;SDS011;1093;51.424;11.764;2022-09-06T00:50:14;19.00;;;12.50;;
2173;SDS011;1093;51.424;11.764;2022-09-06T00:52:44;13.07;;;11.67;;
2173;SDS011;1093;51.424;11.764;2022-09-06T00:55:14;13.83;;;12.53;;
2173;SDS011;1093;51.424;11.764;2022-09-06T00:57:41;13.70;;;12.40;;
2173;SDS011;1093;51.424;11.764;2022-09-06T01:00:10;13.27;;;12.03;;
2173;SDS011;1093;51.424;11.764;2022-09-06T01:02:40;13.83;;;11.27;;
2173;SDS011;1093;51.424;11.764;2022-09-06T01:05:09;13.53;;;12.27;;
2173;SDS011;1093;51.424;11.764;2022-09-06T01:07:42;15.37;;;12.20;;
2173;SDS011;1093;51.424;11.764;2022-09-06T01:10:29;15.03;;;13.53;;
2173;SDS011;1093;51.424;11.764;2022-09-06T01:13:07;12.77;;;11.50;;
2173;SDS011;1093;51.424;11.764;2022-09-06T01:15:44;14.60;;;13.13;;
2173;SDS011;1093;51.424;11.764;2022-09-06T01:18:21;14.70;;;12.67;;
2173;SDS011;1093;51.424;11.764;2022-09-06T01:21:03;13.87;;;12.30;;
2173;SDS011;1093;51.424;11.764;2022-09-06T01:23:54;12.90;;;11.67;;
2173;SDS011;1093;51.424;11.764;2022-09-06T01:26:55;13.90;;;12.30;;
2173;SDS011;1093;51.424;11.764;2022-09-06T01:29:46;12.07;;;10.97;;
2173;SDS011;1093;51.424;11.764;2022-09-06T01:32:16;13.60;;;12.17;;
2173;SDS011;1093;51.424;11.764;2022-09-06T01:35:00;14.77;;;13.07;;
2173;SDS011;1093;51.424;11.764;2022-09-06T01:37:31;14.20;;;11.50;;
2173;SDS011;1093;51.424;11.764;2022-09-06T01:39:58;14.07;;;12.80;;
2173;SDS011;1093;51.424;11.764;2022-09-06T01:42:26;15.23;;;12.33;;
2173;SDS011;1093;51.424;11.764;2022-09-06T01:44:57;14.13;;;12.73;;
2173;SDS011;1093;51.424;11.764;2022-09-06T01:47:30;13.43;;;12.23;;
2173;SDS011;1093;51.424;11.764;2022-09-06T01:52:57;14.00;;;12.40;;
2173;SDS011;1093;51.424;11.764;2022-09-06T01:55:38;14.20;;;12.30;;
2173;SDS011;1093;51.424;11.764;2022-09-06T01:58:16;18.83;;;12.20;;
2173;SDS011;1093;51.424;11.764;2022-09-06T02:00:54;15.17;;;13.50;;
2173;SDS011;1093;51.424;11.764;2022-09-06T02:03:27;15.20;;;12.80;;
2173;SDS011;1093;51.424;11.764;2022-09-06T02:05:58;14.67;;;13.27;;
2173;SDS011;1093;51.424;11.764;2022-09-06T02:08:32;15.93;;;14.43;;
2173;SDS011;1093;51.424;11.764;2022-09-06T02:11:02;15.10;;;13.57;;
2173;SDS011;1093;51.424;11.764;2022-09-06T02:13:31;14.73;;;13.23;;
2173;SDS011;1093;51.424;11.764;2022-09-06T02:16:03;17.03;;;14.80;;
2173;SDS011;1093;51.424;11.764;2022-09-06T02:18:33;15.73;;;14.03;;
2173;SDS011;1093;51.424;11.764;2022-09-06T02:21:03;15.07;;;13.67;;
2173;SDS011;1093;51.424;11.764;2022-09-06T02:23:34;20.37;;;14.97;;
2173;SDS011;1093;51.424;11.764;2022-09-06T02:26:04;15.70;;;14.17;;
2173;SDS011;1093;51.424;11.764;2022-09-06T02:28:34;19.00;;;15.07;;
2173;SDS011;1093;51.424;11.764;2022-09-06T02:31:03;17.17;;;14.73;;
2173;SDS011;1093;51.424;11.764;2022-09-06T02:33:35;16.60;;;14.90;;
2173;SDS011;1093;51.424;11.764;2022-09-06T02:36:04;17.93;;;15.93;;
2173;SDS011;1093;51.424;11.764;2022-09-06T02:38:34;16.97;;;15.23;;
2173;SDS011;1093;51.424;11.764;2022-09-06T02:41:04;18.57;;;15.70;;
2173;SDS011;1093;51.424;11.764;2022-09-06T02:43:31;19.03;;;16.00;;
2173;SDS011;1093;51.424;11.764;2022-09-06T02:45:58;16.40;;;14.80;;
2173;SDS011;1093;51.424;11.764;2022-09-06T02:48:26;17.40;;;15.33;;
2173;SDS011;1093;51.424;11.764;2022-09-06T02:50:53;17.47;;;15.67;;
2173;SDS011;1093;51.424;11.764;2022-09-06T02:53:20;16.50;;;14.80;;
2173;SDS011;1093;51.424;11.764;2022-09-06T02:55:47;17.77;;;16.07;;
2173;SDS011;1093;51.424;11.764;2022-09-06T02:58:14;19.93;;;16.37;;
2173;SDS011;1093;51.424;11.764;2022-09-06T03:00:41;18.47;;;16.23;;
2173;SDS011;1093;51.424;11.764;2022-09-06T03:03:09;20.90;;;18.07;;
2173;SDS011;1093;51.424;11.764;2022-09-06T03:05:37;18.47;;;16.20;;
2173;SDS011;1093;51.424;11.764;2022-09-06T03:08:04;16.80;;;15.03;;
2173;SDS011;1093;51.424;11.764;2022-09-06T03:10:31;18.33;;;15.80;;
2173;SDS011;1093;51.424;11.764;2022-09-06T03:12:57;17.83;;;14.17;;
2173;SDS011;1093;51.424;11.764;2022-09-06T03:15:24;15.47;;;13.83;;
2173;SDS011;1093;51.424;11.764;2022-09-06T03:17:55;16.50;;;13.60;;
2173;SDS011;1093;51.424;11.764;2022-09-06T03:20:23;14.93;;;13.43;;
2173;SDS011;1093;51.424;11.764;2022-09-06T03:22:51;18.20;;;13.40;;
2173;SDS011;1093;51.424;11.764;2022-09-06T03:25:18;14.67;;;12.77;;
2173;SDS011;1093;51.424;11.764;2022-09-06T03:27:45;14.30;;;12.90;;
2173;SDS011;1093;51.424;11.764;2022-09-06T03:30:12;14.53;;;13.10;;
2173;SDS011;1093;51.424;11.764;2022-09-06T03:32:39;14.87;;;12.87;;
2173;SDS011;1093;51.424;11.764;2022-09-06T03:35:06;14.40;;;13.00;;
2173;SDS011;1093;51.424;11.764;2022-09-06T03:37:34;15.00;;;13.60;;
2173;SDS011;1093;51.424;11.764;2022-09-06T03:40:02;14.93;;;13.33;;
2173;SDS011;1093;51.424;11.764;2022-09-06T03:42:30;14.17;;;12.70;;
2173;SDS011;1093;51.424;11.764;2022-09-06T03:44:56;14.63;;;13.20;;
2173;SDS011;1093;51.424;11.764;2022-09-06T03:47:23;14.40;;;13.00;;
2173;SDS011;1093;51.424;11.764;2022-09-06T03:49:50;12.80;;;11.50;;
2173;SDS011;1093;51.424;11.764;2022-09-06T03:52:17;14.90;;;13.30;;
2173;SDS011;1093;51.424;11.764;2022-09-06T03:54:44;14.70;;;12.60;;
2173;SDS011;1093;51.424;11.764;2022-09-06T03:57:12;15.63;;;12.77;;
2173;SDS011;1093;51.424;11.764;2022-09-06T03:59:39;14.20;;;12.17;;
2173;SDS011;1093;51.424;11.764;2022-09-06T04:02:05;13.73;;;12.30;;
2173;SDS011;1093;51.424;11.764;2022-09-06T04:04:32;13.60;;;12.30;;
2173;SDS011;1093;51.424;11.764;2022-09-06T04:06:59;14.17;;;12.67;;
2173;SDS011;1093;51.424;11.764;2022-09-06T04:09:26;14.73;;;13.20;;
2173;SDS011;1093;51.424;11.764;2022-09-06T04:11:53;15.53;;;13.93;;
2173;SDS011;1093;51.424;11.764;2022-09-06T04:14:21;15.60;;;12.87;;
2173;SDS011;1093;51.424;11.764;2022-09-06T04:16:48;15.57;;;13.97;;
2173;SDS011;1093;51.424;11.764;2022-09-06T04:19:14;18.37;;;13.03;;
2173;SDS011;1093;51.424;11.764;2022-09-06T04:21:41;14.27;;;12.40;;
2173;SDS011;1093;51.424;11.764;2022-09-06T04:24:08;15.10;;;13.47;;
2173;SDS011;1093;51.424;11.764;2022-09-06T04:26:35;13.97;;;12.50;;
2173;SDS011;1093;51.424;11.764;2022-09-06T04:29:01;13.37;;;12.07;;
2173;SDS011;1093;51.424;11.764;2022-09-06T04:31:29;15.70;;;13.97;;
2173;SDS011;1093;51.424;11.764;2022-09-06T04:33:57;17.20;;;14.20;;
2173;SDS011;1093;51.424;11.764;2022-09-06T04:36:24;14.67;;;13.23;;
2173;SDS011;1093;51.424;11.764;2022-09-06T04:38:51;15.80;;;14.13;;
2173;SDS011;1093;51.424;11.764;2022-09-06T04:41:18;20.23;;;15.00;;
2173;SDS011;1093;51.424;11.764;2022-09-06T04:43:45;15.60;;;13.40;;
2173;SDS011;1093;51.424;11.764;2022-09-06T04:46:13;14.90;;;13.37;;
2173;SDS011;1093;51.424;11.764;2022-09-06T04:48:46;18.53;;;12.93;;
2173;SDS011;1093;51.424;11.764;2022-09-06T04:51:13;16.40;;;11.90;;
2173;SDS011;1093;51.424;11.764;2022-09-06T04:53:40;19.27;;;13.33;;
2173;SDS011;1093;51.424;11.764;2022-09-06T04:56:08;14.47;;;13.03;;
2173;SDS011;1093;51.424;11.764;2022-09-06T04:58:38;13.63;;;12.23;;
2173;SDS011;1093;51.424;11.764;2022-09-06T05:01:05;13.90;;;12.50;;
2173;SDS011;1093;51.424;11.764;2022-09-06T05:03:32;14.30;;;12.67;;
2173;SDS011;1093;51.424;11.764;2022-09-06T05:06:04;15.10;;;13.47;;
2173;SDS011;1093;51.424;11.764;2022-09-06T05:08:32;15.40;;;12.73;;
2173;SDS011;1093;51.424;11.764;2022-09-06T05:11:01;14.13;;;12.60;;
2173;SDS011;1093;51.424;11.764;2022-09-06T05:13:27;13.50;;;12.20;;
2173;SDS011;1093;51.424;11.764;2022-09-06T05:15:54;14.90;;;13.30;;
2173;SDS011;1093;51.424;11.764;2022-09-06T05:18:24;16.00;;;14.40;;
2173;SDS011;1093;51.424;11.764;2022-09-06T05:20:51;24.10;;;14.17;;
2173;SDS011;1093;51.424;11.764;2022-09-06T05:23:20;15.00;;;13.37;;
2173;SDS011;1093;51.424;11.764;2022-09-06T05:25:47;15.33;;;13.67;;
2173;SDS011;1093;51.424;11.764;2022-09-06T05:28:14;15.40;;;13.80;;
2173;SDS011;1093;51.424;11.764;2022-09-06T05:30:42;15.27;;;13.77;;
2173;SDS011;1093;51.424;11.764;2022-09-06T05:33:09;14.53;;;13.07;;
2173;SDS011;1093;51.424;11.764;2022-09-06T05:35:37;14.10;;;12.27;;
2173;SDS011;1093;51.424;11.764;2022-09-06T05:38:04;15.17;;;13.67;;
2173;SDS011;1093;51.424;11.764;2022-09-06T05:40:32;20.00;;;14.33;;
2173;SDS011;1093;51.424;11.764;2022-09-06T05:42:59;18.43;;;15.00;;
2173;SDS011;1093;51.424;11.764;2022-09-06T05:45:26;19.40;;;13.97;;
2173;SDS011;1093;51.424;11.764;2022-09-06T05:47:53;16.60;;;14.80;;
2173;SDS011;1093;51.424;11.764;2022-09-06T05:50:19;15.40;;;13.90;;
2173;SDS011;1093;51.424;11.764;2022-09-06T05:52:46;16.73;;;13.77;;
2173;SDS011;1093;51.424;11.764;2022-09-06T05:55:15;17.37;;;14.60;;
2173;SDS011;1093;51.424;11.764;2022-09-06T05:57:43;15.30;;;13.37;;
2173;SDS011;1093;51.424;11.764;2022-09-06T06:00:10;15.73;;;14.03;;
2173;SDS011;1093;51.424;11.764;2022-09-06T06:02:38;16.53;;;14.63;;
2173;SDS011;1093;51.424;11.764;2022-09-06T06:05:05;15.67;;;13.97;;
2173;SDS011;1093;51.424;11.764;2022-09-06T06:07:32;16.40;;;14.00;;
2173;SDS011;1093;51.424;11.764;2022-09-06T06:09:59;15.53;;;13.50;;
2173;SDS011;1093;51.424;11.764;2022-09-06T06:12:26;14.83;;;13.43;;
2173;SDS011;1093;51.424;11.764;2022-09-06T06:14:54;14.43;;;12.93;;
2173;SDS011;1093;51.424;11.764;2022-09-06T06:17:20;16.90;;;14.57;;
2173;SDS011;1093;51.424;11.764;2022-09-06T06:19:47;17.80;;;13.70;;
2173;SDS011;1093;51.424;11.764;2022-09-06T06:22:14;16.00;;;13.33;;
2173;SDS011;1093;51.424;11.764;2022-09-06T06:24:41;17.13;;;14.77;;
2173;SDS011;1093;51.424;11.764;2022-09-06T06:27:08;15.63;;;13.93;;
2173;SDS011;1093;51.424;11.764;2022-09-06T06:29:34;21.90;;;12.40;;
2173;SDS011;1093;51.424;11.764;2022-09-06T06:32:03;15.30;;;13.80;;
2173;SDS011;1093;51.424;11.764;2022-09-06T06:34:29;15.43;;;13.97;;
2173;SDS011;1093;51.424;11.764;2022-09-06T06:36:56;16.07;;;13.10;;
2173;SDS011;1093;51.424;11.764;2022-09-06T06:39:23;16.43;;;14.40;;
2173;SDS011;1093;51.424;11.764;2022-09-06T06:41:51;21.63;;;15.07;;
2173;SDS011;1093;51.424;11.764;2022-09-06T06:44:18;16.37;;;14.77;;
2173;SDS011;1093;51.424;11.764;2022-09-06T06:46:45;18.97;;;14.47;;
2173;SDS011;1093;51.424;11.764;2022-09-06T06:49:13;16.00;;;13.97;;
2173;SDS011;1093;51.424;11.764;2022-09-06T06:51:39;15.60;;;13.10;;
2173;SDS011;1093;51.424;11.764;2022-09-06T06:54:06;16.30;;;14.70;;
2173;SDS011;1093;51.424;11.764;2022-09-06T06:56:34;23.00;;;13.07;;
2173;SDS011;1093;51.424;11.764;2022-09-06T06:59:05;16.57;;;14.87;;
2173;SDS011;1093;51.424;11.764;2022-09-06T07:01:32;18.33;;;13.77;;
2173;SDS011;1093;51.424;11.764;2022-09-06T07:04:00;15.63;;;13.70;;
2173;SDS011;1093;51.424;11.764;2022-09-06T07:06:28;15.90;;;13.97;;
2173;SDS011;1093;51.424;11.764;2022-09-06T07:08:55;16.60;;;14.40;;
2173;SDS011;1093;51.424;11.764;2022-09-06T07:11:23;16.90;;;12.97;;
2173;SDS011;1093;51.424;11.764;2022-09-06T07:13:50;14.60;;;13.30;;
2173;SDS011;1093;51.424;11.764;2022-09-06T07:16:18;14.90;;;13.27;;
2173;SDS011;1093;51.424;11.764;2022-09-06T07:18:45;22.43;;;15.73;;
2173;SDS011;1093;51.424;11.764;2022-09-06T07:21:15;17.57;;;13.87;;
2173;SDS011;1093;51.424;11.764;2022-09-06T07:23:45;16.03;;;14.50;;
2173;SDS011;1093;51.424;11.764;2022-09-06T07:26:12;18.20;;;14.90;;
2173;SDS011;1093;51.424;11.764;2022-09-06T07:28:40;16.83;;;15.00;;
2173;SDS011;1093;51.424;11.764;2022-09-06T07:31:07;16.60;;;14.80;;
2173;SDS011;1093;51.424;11.764;2022-09-06T07:33:34;16.70;;;15.00;;
2173;SDS011;1093;51.424;11.764;2022-09-06T07:36:02;20.20;;;14.80;;
2173;SDS011;1093;51.424;11.764;2022-09-06T07:38:30;17.00;;;15.20;;
2173;SDS011;1093;51.424;11.764;2022-09-06T07:40:59;16.77;;;15.10;;
2173;SDS011;1093;51.424;11.764;2022-09-06T07:43:27;18.30;;;16.30;;
2173;SDS011;1093;51.424;11.764;2022-09-06T07:45:58;21.07;;;14.50;;
2173;SDS011;1093;51.424;11.764;2022-09-06T07:48:26;25.57;;;15.97;;
2173;SDS011;1093;51.424;11.764;2022-09-06T07:50:54;21.47;;;14.40;;
2173;SDS011;1093;51.424;11.764;2022-09-06T07:53:27;14.33;;;12.93;;
2173;SDS011;1093;51.424;11.764;2022-09-06T07:55:53;16.97;;;14.33;;
2173;SDS011;1093;51.424;11.764;2022-09-06T07:58:22;16.07;;;14.50;;
2173;SDS011;1093;51.424;11.764;2022-09-06T08:00:48;17.07;;;14.67;;
2173;SDS011;1093;51.424;11.764;2022-09-06T08:03:15;17.53;;;15.83;;
2173;SDS011;1093;51.424;11.764;2022-09-06T08:05:42;18.27;;;15.27;;
2173;SDS011;1093;51.424;11.764;2022-09-06T08:08:08;16.00;;;14.30;;
2173;SDS011;1093;51.424;11.764;2022-09-06T08:10:35;18.10;;;13.37;;
2173;SDS011;1093;51.424;11.764;2022-09-06T08:13:02;15.33;;;13.73;;
2173;SDS011;1093;51.424;11.764;2022-09-06T08:15:30;17.97;;;13.70;;
2173;SDS011;1093;51.424;11.764;2022-09-06T08:17:57;15.07;;;13.30;;
2173;SDS011;1093;51.424;11.764;2022-09-06T08:20:24;14.77;;;13.20;;
2173;SDS011;1093;51.424;11.764;2022-09-06T08:22:50;16.67;;;13.97;;
2173;SDS011;1093;51.424;11.764;2022-09-06T08:25:17;17.40;;;14.27;;
2173;SDS011;1093;51.424;11.764;2022-09-06T08:27:44;14.67;;;13.20;;
2173;SDS011;1093;51.424;11.764;2022-09-06T08:30:10;15.53;;;13.83;;
2173;SDS011;1093;51.424;11.764;2022-09-06T08:32:39;19.07;;;13.70;;
2173;SDS011;1093;51.424;11.764;2022-09-06T08:35:07;17.83;;;14.60;;
2173;SDS011;1093;51.424;11.764;2022-09-06T08:37:35;18.97;;;12.40;;
2173;SDS011;1093;51.424;11.764;2022-09-06T08:40:01;16.47;;;13.30;;
2173;SDS011;1093;51.424;11.764;2022-09-06T08:42:28;16.80;;;12.93;;
2173;SDS011;1093;51.424;11.764;2022-09-06T08:44:56;15.00;;;13.53;;
2173;SDS011;1093;51.424;11.764;2022-09-06T08:47:24;13.63;;;11.90;;
2173;SDS011;1093;51.424;11.764;2022-09-06T08:49:53;13.87;;;12.43;;
2173;SDS011;1093;51.424;11.764;2022-09-06T08:52:25;16.33;;;13.40;;
2173;SDS011;1093;51.424;11.764;2022-09-06T08:55:13;13.37;;;11.77;;
2173;SDS011;1093;51.424;11.764;2022-09-06T08:57:50;13.13;;;11.70;;
2173;SDS011;1093;51.424;11.764;2022-09-06T09:00:29;16.40;;;13.27;;
2173;SDS011;1093;51.424;11.764;2022-09-06T09:02:58;17.53;;;13.47;;
2173;SDS011;1093;51.424;11.764;2022-09-06T09:05:34;14.13;;;12.70;;
2173;SDS011;1093;51.424;11.764;2022-09-06T09:08:05;18.73;;;12.47;;
2173;SDS011;1093;51.424;11.764;2022-09-06T09:10:40;13.67;;;12.27;;
2173;SDS011;1093;51.424;11.764;2022-09-06T09:13:08;12.50;;;11.30;;
2173;SDS011;1093;51.424;11.764;2022-09-06T09:15:44;12.70;;;11.47;;
2173;SDS011;1093;51.424;11.764;2022-09-06T09:18:11;13.70;;;11.47;;
2173;SDS011;1093;51.424;11.764;2022-09-06T09:20:42;13.33;;;10.80;;
2173;SDS011;1093;51.424;11.764;2022-09-06T09:23:09;12.40;;;9.37;;
2173;SDS011;1093;51.424;11.764;2022-09-06T09:25:36;11.30;;;9.80;;
2173;SDS011;1093;51.424;11.764;2022-09-06T09:28:04;12.90;;;10.23;;
2173;SDS011;1093;51.424;11.764;2022-09-06T09:30:46;11.10;;;10.00;;
2173;SDS011;1093;51.424;11.764;2022-09-06T09:33:25;13.47;;;11.27;;
2173;SDS011;1093;51.424;11.764;2022-09-06T09:35:55;16.53;;;10.43;;
2173;SDS011;1093;51.424;11.764;2022-09-06T09:38:24;10.87;;;9.77;;
2173;SDS011;1093;51.424;11.764;2022-09-06T09:40:54;11.03;;;9.90;;
2173;SDS011;1093;51.424;11.764;2022-09-06T09:43:22;11.87;;;10.77;;
2173;SDS011;1093;51.424;11.764;2022-09-06T09:46:07;11.30;;;9.17;;
2173;SDS011;1093;51.424;11.764;2022-09-06T09:49:04;11.63;;;10.37;;
2173;SDS011;1093;51.424;11.764;2022-09-06T09:51:35;9.37;;;8.50;;
2173;SDS011;1093;51.424;11.764;2022-09-06T09:54:03;16.70;;;9.67;;
2173;SDS011;1093;51.424;11.764;2022-09-06T09:56:39;10.23;;;8.43;;
2173;SDS011;1093;51.424;11.764;2022-09-06T09:59:15;13.73;;;9.63;;
2173;SDS011;1093;51.424;11.764;2022-09-06T10:01:45;8.70;;;7.90;;
2173;SDS011;1093;51.424;11.764;2022-09-06T10:04:16;19.37;;;9.23;;
2173;SDS011;1093;51.424;11.764;2022-09-06T10:06:46;12.40;;;9.17;;
2173;SDS011;1093;51.424;11.764;2022-09-06T10:09:28;10.90;;;9.20;;
2173;SDS011;1093;51.424;11.764;2022-09-06T10:11:59;15.47;;;9.37;;
2173;SDS011;1093;51.424;11.764;2022-09-06T10:14:27;10.13;;;9.17;;
2173;SDS011;1093;51.424;11.764;2022-09-06T10:16:56;11.20;;;8.43;;
2173;SDS011;1093;51.424;11.764;2022-09-06T10:22:17;9.40;;;8.40;;
2173;SDS011;1093;51.424;11.764;2022-09-06T10:27:50;12.40;;;9.67;;
2173;SDS011;1093;51.424;11.764;2022-09-06T10:30:27;13.20;;;9.53;;
2173;SDS011;1093;51.424;11.764;2022-09-06T10:32:58;11.23;;;8.23;;
2173;SDS011;1093;51.424;11.764;2022-09-06T10:35:30;9.60;;;8.80;;
2173;SDS011;1093;51.424;11.764;2022-09-06T10:38:07;12.27;;;8.77;;
2173;SDS011;1093;51.424;11.764;2022-09-06T10:40:51;10.63;;;9.53;;
2173;SDS011;1093;51.424;11.764;2022-09-06T10:43:26;10.17;;;8.53;;
2173;SDS011;1093;51.424;11.764;2022-09-06T10:46:06;9.93;;;8.93;;
2173;SDS011;1093;51.424;11.764;2022-09-06T10:48:40;12.00;;;10.20;;
2173;SDS011;1093;51.424;11.764;2022-09-06T10:51:10;10.20;;;9.30;;
2173;SDS011;1093;51.424;11.764;2022-09-06T10:53:47;13.20;;;9.43;;
2173;SDS011;1093;51.424;11.764;2022-09-06T10:56:17;10.53;;;9.53;;
2173;SDS011;1093;51.424;11.764;2022-09-06T10:58:50;12.87;;;11.53;;
2173;SDS011;1093;51.424;11.764;2022-09-06T11:01:23;14.47;;;11.00;;
2173;SDS011;1093;51.424;11.764;2022-09-06T11:03:55;16.83;;;11.07;;
2173;SDS011;1093;51.424;11.764;2022-09-06T11:06:26;12.00;;;10.63;;
2173;SDS011;1093;51.424;11.764;2022-09-06T11:09:01;12.23;;;10.70;;
2173;SDS011;1093;51.424;11.764;2022-09-06T11:11:35;12.10;;;10.90;;
2173;SDS011;1093;51.424;11.764;2022-09-06T11:14:08;12.13;;;10.97;;
2173;SDS011;1093;51.424;11.764;2022-09-06T11:16:39;11.23;;;10.23;;
2173;SDS011;1093;51.424;11.764;2022-09-06T11:19:11;14.20;;;12.53;;
2173;SDS011;1093;51.424;11.764;2022-09-06T11:21:58;12.47;;;10.80;;
2173;SDS011;1093;51.424;11.764;2022-09-06T11:24:52;11.80;;;10.53;;
2173;SDS011;1093;51.424;11.764;2022-09-06T11:27:40;13.70;;;12.30;;
2173;SDS011;1093;51.424;11.764;2022-09-06T11:30:12;15.40;;;11.93;;
2173;SDS011;1093;51.424;11.764;2022-09-06T11:32:41;15.13;;;11.80;;
2173;SDS011;1093;51.424;11.764;2022-09-06T11:35:19;13.47;;;12.17;;
2173;SDS011;1093;51.424;11.764;2022-09-06T11:37:47;14.00;;;11.73;;
2173;SDS011;1093;51.424;11.764;2022-09-06T11:40:26;16.40;;;11.60;;
2173;SDS011;1093;51.424;11.764;2022-09-06T11:43:08;19.17;;;15.03;;
2173;SDS011;1093;51.424;11.764;2022-09-06T11:45:39;17.90;;;14.37;;
2173;SDS011;1093;51.424;11.764;2022-09-06T11:51:02;20.17;;;13.10;;
2173;SDS011;1093;51.424;11.764;2022-09-06T11:53:32;15.03;;;13.53;;
2173;SDS011;1093;51.424;11.764;2022-09-06T11:56:15;15.30;;;13.40;;
2173;SDS011;1093;51.424;11.764;2022-09-06T11:58:55;13.80;;;11.80;;
2173;SDS011;1093;51.424;11.764;2022-09-06T12:01:34;15.93;;;12.80;;
2173;SDS011;1093;51.424;11.764;2022-09-06T12:04:04;13.13;;;11.50;;
2173;SDS011;1093;51.424;11.764;2022-09-06T12:06:37;15.40;;;11.80;;
2173;SDS011;1093;51.424;11.764;2022-09-06T12:11:58;15.60;;;11.10;;
2173;SDS011;1093;51.424;11.764;2022-09-06T12:14:30;13.40;;;10.63;;
2173;SDS011;1093;51.424;11.764;2022-09-06T12:19:56;13.27;;;11.83;;
2173;SDS011;1093;51.424;11.764;2022-09-06T12:28:25;15.30;;;9.63;;
2173;SDS011;1093;51.424;11.764;2022-09-06T12:30:56;10.30;;;9.20;;
2173;SDS011;1093;51.424;11.764;2022-09-06T12:33:24;8.80;;;7.00;;
2173;SDS011;1093;51.424;11.764;2022-09-06T12:38:37;8.23;;;6.33;;
2173;SDS011;1093;51.424;11.764;2022-09-06T12:41:04;6.30;;;5.70;;
2173;SDS011;1093;51.424;11.764;2022-09-06T12:43:33;6.23;;;5.73;;
2173;SDS011;1093;51.424;11.764;2022-09-06T12:46:04;6.50;;;5.97;;
2173;SDS011;1093;51.424;11.764;2022-09-06T12:48:32;8.33;;;5.40;;
2173;SDS011;1093;51.424;11.764;2022-09-06T12:51:05;4.83;;;4.43;;
2173;SDS011;1093;51.424;11.764;2022-09-06T12:53:37;5.77;;;3.97;;
2173;SDS011;1093;51.424;11.764;2022-09-06T12:56:05;4.10;;;3.80;;
2173;SDS011;1093;51.424;11.764;2022-09-06T12:58:35;3.83;;;3.43;;
2173;SDS011;1093;51.424;11.764;2022-09-06T13:01:05;3.13;;;2.93;;
2173;SDS011;1093;51.424;11.764;2022-09-06T13:03:37;3.00;;;2.80;;
2173;SDS011;1093;51.424;11.764;2022-09-06T13:06:06;4.13;;;2.40;;
2173;SDS011;1093;51.424;11.764;2022-09-06T13:08:37;4.10;;;2.93;;
2173;SDS011;1093;51.424;11.764;2022-09-06T13:11:10;2.63;;;2.43;;
2173;SDS011;1093;51.424;11.764;2022-09-06T13:13:45;2.80;;;2.60;;
2173;SDS011;1093;51.424;11.764;2022-09-06T13:16:18;3.50;;;3.20;;
2173;SDS011;1093;51.424;11.764;2022-09-06T13:18:46;4.60;;;2.73;;
2173;SDS011;1093;51.424;11.764;2022-09-06T13:21:23;2.90;;;2.70;;
2173;SDS011;1093;51.424;11.764;2022-09-06T13:23:51;4.40;;;2.87;;
2173;SDS011;1093;51.424;11.764;2022-09-06T13:26:30;4.40;;;3.23;;
2173;SDS011;1093;51.424;11.764;2022-09-06T13:29:11;2.70;;;2.50;;
2173;SDS011;1093;51.424;11.764;2022-09-06T13:31:48;3.13;;;2.83;;
2173;SDS011;1093;51.424;11.764;2022-09-06T13:34:19;4.30;;;3.40;;
2173;SDS011;1093;51.424;11.764;2022-09-06T13:36:47;2.90;;;2.70;;
2173;SDS011;1093;51.424;11.764;2022-09-06T13:39:29;2.93;;;2.73;;
2173;SDS011;1093;51.424;11.764;2022-09-06T13:42:01;2.77;;;2.57;;
2173;SDS011;1093;51.424;11.764;2022-09-06T13:44:31;3.10;;;2.70;;
2173;SDS011;1093;51.424;11.764;2022-09-06T13:46:59;5.13;;;3.17;;
2173;SDS011;1093;51.424;11.764;2022-09-06T13:49:27;3.67;;;3.37;;
2173;SDS011;1093;51.424;11.764;2022-09-06T13:51:54;3.63;;;2.50;;
2173;SDS011;1093;51.424;11.764;2022-09-06T13:54:24;2.23;;;2.13;;
2173;SDS011;1093;51.424;11.764;2022-09-06T13:56:52;2.80;;;2.00;;
2173;SDS011;1093;51.424;11.764;2022-09-06T13:59:19;3.07;;;2.40;;
2173;SDS011;1093;51.424;11.764;2022-09-06T14:01:48;2.77;;;2.57;;
2173;SDS011;1093;51.424;11.764;2022-09-06T14:04:21;4.83;;;2.87;;
2173;SDS011;1093;51.424;11.764;2022-09-06T14:06:49;3.40;;;2.33;;
2173;SDS011;1093;51.424;11.764;2022-09-06T14:09:16;2.30;;;2.10;;
2173;SDS011;1093;51.424;11.764;2022-09-06T14:11:43;2.37;;;2.17;;
2173;SDS011;1093;51.424;11.764;2022-09-06T14:14:09;3.50;;;2.20;;
2173;SDS011;1093;51.424;11.764;2022-09-06T14:16:36;2.03;;;1.83;;
2173;SDS011;1093;51.424;11.764;2022-09-06T14:19:05;2.80;;;1.70;;
2173;SDS011;1093;51.424;11.764;2022-09-06T14:21:31;3.90;;;2.00;;
2173;SDS011;1093;51.424;11.764;2022-09-06T14:23:58;3.07;;;2.50;;
2173;SDS011;1093;51.424;11.764;2022-09-06T14:26:26;2.30;;;2.10;;
2173;SDS011;1093;51.424;11.764;2022-09-06T14:28:53;1.77;;;1.67;;
2173;SDS011;1093;51.424;11.764;2022-09-06T14:31:21;2.50;;;2.30;;
2173;SDS011;1093;51.424;11.764;2022-09-06T14:33:49;2.30;;;2.10;;
2173;SDS011;1093;51.424;11.764;2022-09-06T14:36:18;2.60;;;1.67;;
2173;SDS011;1093;51.424;11.764;2022-09-06T14:38:47;2.23;;;2.03;;
2173;SDS011;1093;51.424;11.764;2022-09-06T14:41:15;2.73;;;2.17;;
2173;SDS011;1093;51.424;11.764;2022-09-06T14:43:43;1.70;;;1.60;;
2173;SDS011;1093;51.424;11.764;2022-09-06T14:46:13;1.80;;;1.70;;
2173;SDS011;1093;51.424;11.764;2022-09-06T14:48:42;1.83;;;1.60;;
2173;SDS011;1093;51.424;11.764;2022-09-06T14:51:09;2.80;;;1.70;;
2173;SDS011;1093;51.424;11.764;2022-09-06T14:53:39;1.70;;;1.60;;
2173;SDS011;1093;51.424;11.764;2022-09-06T14:56:07;6.50;;;1.87;;
2173;SDS011;1093;51.424;11.764;2022-09-06T14:58:35;2.37;;;1.60;;
2173;SDS011;1093;51.424;11.764;2022-09-06T15:01:07;2.47;;;1.90;;
2173;SDS011;1093;51.424;11.764;2022-09-06T15:03:35;3.93;;;1.77;;
2173;SDS011;1093;51.424;11.764;2022-09-06T15:06:02;1.83;;;1.50;;
2173;SDS011;1093;51.424;11.764;2022-09-06T15:08:29;2.33;;;1.37;;
2173;SDS011;1093;51.424;11.764;2022-09-06T15:10:57;3.83;;;1.97;;
2173;SDS011;1093;51.424;11.764;2022-09-06T15:13:25;1.60;;;1.50;;
2173;SDS011;1093;51.424;11.764;2022-09-06T15:15:52;2.83;;;1.80;;
2173;SDS011;1093;51.424;11.764;2022-09-06T15:18:18;1.83;;;1.43;;
2173;SDS011;1093;51.424;11.764;2022-09-06T15:20:45;1.43;;;1.33;;
2173;SDS011;1093;51.424;11.764;2022-09-06T15:23:12;1.53;;;1.43;;